createdAt,value
2023-01-28T00:01:39.837Z,75.45
2023-01-28T00:04:08.433Z,75.39
2023-01-28T00:06:37.189Z,74.87
2023-01-28T00:09:06.088Z,74.79
2023-01-28T00:11:34.535Z,75.08
2023-01-28T00:14:04.026Z,75.00
2023-01-28T00:16:32.397Z,74.73
2023-01-28T00:19:00.871Z,75.00
2023-01-28T00:21:29.422Z,74.76
2023-01-28T00:23:58.029Z,74.29
2023-01-28T00:26:26.610Z,74.36
2023-01-28T00:28:55.164Z,74.19
2023-01-28T00:31:26.561Z,73.96
2023-01-28T00:33:56.538Z,73.99
2023-01-28T00:36:26.156Z,74.00
2023-01-28T00:38:56.393Z,74.08
2023-01-28T00:41:26.672Z,74.52
2023-01-28T00:43:55.656Z,74.82
2023-01-28T00:46:25.785Z,74.89
2023-01-28T00:48:54.293Z,75.09
2023-01-28T00:51:22.963Z,74.97
2023-01-28T00:53:52.430Z,75.25
2023-01-28T00:56:20.936Z,74.72
2023-01-28T00:58:49.296Z,74.38
2023-01-28T01:01:20.029Z,74.08
2023-01-28T01:03:56.709Z,74.15
2023-01-28T01:06:25.627Z,74.10
2023-01-28T01:08:55.740Z,74.25
2023-01-28T01:11:24.898Z,74.67
2023-01-28T01:13:55.475Z,74.39
2023-01-28T01:16:26.207Z,74.45
2023-01-28T01:18:55.945Z,74.17
2023-01-28T01:21:27.080Z,74.17
2023-01-28T01:23:56.462Z,74.65
2023-01-28T01:26:26.677Z,75.07
2023-01-28T01:28:55.497Z,75.08
2023-01-28T01:31:24.052Z,75.35
2023-01-28T01:33:52.881Z,75.43
2023-01-28T01:36:21.441Z,75.59
2023-01-28T01:38:53.916Z,76.11
2023-01-28T01:41:27.398Z,75.89
2023-01-28T01:43:57.853Z,75.75
2023-01-28T01:46:33.684Z,75.40
2023-01-28T01:49:11.503Z,75.20
2023-01-28T01:51:40.885Z,75.28
2023-01-28T01:54:09.497Z,75.39
2023-01-28T01:56:41.925Z,75.81
2023-01-28T01:59:13.796Z,76.09
2023-01-28T02:01:44.925Z,76.21
2023-01-28T02:04:19.934Z,76.87
2023-01-28T02:06:48.928Z,76.12
2023-01-28T02:09:24.350Z,75.61
2023-01-28T02:11:55.794Z,75.21
2023-01-28T02:14:31.423Z,74.79
2023-01-28T02:17:01.591Z,75.20
2023-01-28T02:19:37.992Z,75.12
2023-01-28T02:22:31.132Z,74.94
2023-01-28T02:25:18.135Z,75.64
2023-01-28T02:28:09.576Z,75.32
2023-01-28T02:30:42.456Z,75.70
2023-01-28T02:33:17.255Z,75.25
2023-01-28T02:35:52.145Z,74.91
2023-01-28T02:38:27.903Z,74.86
2023-01-28T02:41:05.977Z,74.40
2023-01-28T02:43:36.648Z,75.39
2023-01-28T02:46:37.998Z,75.77
2023-01-28T02:49:11.662Z,75.32
2023-01-28T02:51:57.029Z,74.83
2023-01-28T02:54:37.976Z,74.60
2023-01-28T02:57:18.851Z,75.22
2023-01-28T02:59:57.341Z,75.10
2023-01-28T03:02:38.527Z,75.87
2023-01-28T03:05:16.142Z,75.83
2023-01-28T03:07:45.253Z,75.44
2023-01-28T03:10:19.238Z,75.48
2023-01-28T03:13:09.760Z,75.03
2023-01-28T03:16:00.309Z,74.86
2023-01-28T03:18:54.363Z,75.05
2023-01-28T03:21:47.697Z,75.51
2023-01-28T03:24:39.593Z,75.56
2023-01-28T03:27:34.738Z,75.28
2023-01-28T03:30:30.921Z,75.66
2023-01-28T03:33:21.606Z,75.02
2023-01-28T03:36:09.253Z,74.77
2023-01-28T03:38:43.088Z,75.70
2023-01-28T03:41:19.778Z,75.96
2023-01-28T03:43:49.268Z,75.49
2023-01-28T03:46:18.137Z,75.24
2023-01-28T03:48:46.870Z,75.72
2023-01-28T03:51:17.204Z,75.43
2023-01-28T03:53:45.735Z,75.25
2023-01-28T03:56:17.830Z,74.22
2023-01-28T03:58:52.340Z,74.22
2023-01-28T04:01:21.031Z,74.40
2023-01-28T04:03:49.932Z,73.49
2023-01-28T04:06:28.585Z,73.06
2023-01-28T04:09:02.083Z,73.20
2023-01-28T04:11:53.587Z,72.81
2023-01-28T04:14:27.241Z,73.53
2023-01-28T04:16:59.182Z,72.90
2023-01-28T04:19:28.102Z,72.58
2023-01-28T04:21:57.370Z,71.35
2023-01-28T04:24:26.992Z,71.79
2023-01-28T04:26:56.630Z,72.16
2023-01-28T04:29:26.274Z,71.91
2023-01-28T04:31:57.788Z,71.58
2023-01-28T04:34:56.552Z,71.19
2023-01-28T04:37:44.450Z,70.98
2023-01-28T04:40:44.147Z,71.03
2023-01-28T04:43:22.029Z,70.63
2023-01-28T04:45:53.287Z,70.04
2023-01-28T04:48:36.074Z,70.86
2023-01-28T04:51:31.928Z,71.07
2023-01-28T04:54:15.781Z,70.42
2023-01-28T04:56:44.549Z,69.90
2023-01-28T04:59:12.881Z,70.17
2023-01-28T05:01:41.471Z,69.61
2023-01-28T05:04:09.936Z,68.56
2023-01-28T05:06:40.261Z,68.44
2023-01-28T05:09:18.339Z,68.05
2023-01-28T05:11:46.963Z,67.44
2023-01-28T05:14:16.404Z,67.77
2023-01-28T05:16:49.539Z,68.47
2023-01-28T05:19:18.740Z,68.61
2023-01-28T05:21:48.445Z,68.00
2023-01-28T05:24:25.417Z,68.25
2023-01-28T05:26:55.066Z,68.46
2023-01-28T05:29:23.443Z,68.59
2023-01-28T05:31:51.805Z,68.84
2023-01-28T05:34:21.315Z,68.96
2023-01-28T05:36:49.719Z,69.47
2023-01-28T05:39:38.767Z,68.80
2023-01-28T05:42:07.098Z,68.57
2023-01-28T05:44:37.591Z,68.76
2023-01-28T05:47:26.325Z,68.39
2023-01-28T05:50:08.193Z,68.56
2023-01-28T05:52:45.549Z,68.93
2023-01-28T05:55:22.850Z,69.26
2023-01-28T05:57:51.401Z,68.81
2023-01-28T06:00:23.271Z,68.48
2023-01-28T06:02:52.537Z,69.23
2023-01-28T06:05:21.845Z,69.26
2023-01-28T06:07:50.349Z,69.38
2023-01-28T06:10:19.347Z,68.75
2023-01-28T06:12:48.726Z,69.62
2023-01-28T06:15:35.971Z,69.00
2023-01-28T06:18:25.492Z,68.67
2023-01-28T06:20:53.881Z,68.37
2023-01-28T06:23:22.789Z,67.78
2023-01-28T06:25:55.271Z,67.74
2023-01-28T06:28:23.695Z,67.27
2023-01-28T06:30:52.947Z,66.76
2023-01-28T06:33:23.418Z,66.63
2023-01-28T06:35:51.787Z,66.98
2023-01-28T06:38:20.156Z,66.92
2023-01-28T06:40:52.249Z,66.28
2023-01-28T06:43:20.792Z,66.35
2023-01-28T06:45:49.145Z,66.50
2023-01-28T06:48:20.660Z,66.22
2023-01-28T06:50:49.811Z,66.02
2023-01-28T06:53:19.323Z,66.16
2023-01-28T06:55:47.729Z,65.96
2023-01-28T06:58:17.503Z,65.75
2023-01-28T07:00:45.849Z,66.19
2023-01-28T07:03:14.398Z,65.82
2023-01-28T07:05:42.938Z,65.30
2023-01-28T07:08:11.498Z,65.60
2023-01-28T07:10:39.843Z,65.13
2023-01-28T07:13:08.249Z,65.29
2023-01-28T07:15:36.933Z,65.70
2023-01-28T07:18:05.873Z,65.46
2023-01-28T07:20:35.267Z,65.68
2023-01-28T07:23:03.764Z,66.29
2023-01-28T07:25:32.569Z,65.86
2023-01-28T07:28:01.370Z,66.02
2023-01-28T07:30:30.089Z,65.79
2023-01-28T07:32:59.504Z,66.23
2023-01-28T07:35:29.165Z,65.63
2023-01-28T07:37:59.672Z,65.23
2023-01-28T07:40:29.311Z,65.05
2023-01-28T07:42:58.148Z,65.47
2023-01-28T07:45:29.934Z,65.71
2023-01-28T07:48:00.004Z,65.61
2023-01-28T07:50:30.746Z,66.36
2023-01-28T07:52:59.639Z,65.90
2023-01-28T07:55:31.168Z,65.41
2023-01-28T07:58:00.291Z,65.26
2023-01-28T08:00:30.828Z,65.22
2023-01-28T08:03:00.663Z,65.62
2023-01-28T08:05:38.446Z,64.94
2023-01-28T08:08:07.925Z,64.72
2023-01-28T08:10:37.812Z,64.35
2023-01-28T08:13:07.399Z,64.79
2023-01-28T08:15:36.551Z,65.31
2023-01-28T08:18:06.957Z,65.06
2023-01-28T08:20:35.875Z,65.50
2023-01-28T08:23:07.815Z,66.21
2023-01-28T08:25:36.442Z,65.86
2023-01-28T08:28:06.143Z,65.22
2023-01-28T08:30:37.107Z,65.44
2023-01-28T08:33:09.032Z,65.44
2023-01-28T08:35:39.844Z,64.83
2023-01-28T08:38:10.939Z,64.50
2023-01-28T08:40:39.853Z,64.13
2023-01-28T08:43:09.213Z,64.64
2023-01-28T08:45:40.188Z,64.53
2023-01-28T08:48:14.712Z,65.09
2023-01-28T08:50:44.471Z,64.45
2023-01-28T08:53:16.898Z,64.47
2023-01-28T08:55:46.869Z,64.25
2023-01-28T08:58:18.478Z,65.49
2023-01-28T09:00:51.163Z,65.81
2023-01-28T09:03:23.042Z,64.92
2023-01-28T09:05:52.971Z,64.84
2023-01-28T09:08:25.281Z,64.73
2023-01-28T09:10:57.288Z,64.70
2023-01-28T09:13:26.423Z,65.49
2023-01-28T09:15:55.661Z,64.77
2023-01-28T09:18:24.339Z,64.50
2023-01-28T09:20:52.863Z,64.31
2023-01-28T09:23:21.582Z,65.12
2023-01-28T09:25:50.678Z,65.43
2023-01-28T09:28:20.805Z,66.07
2023-01-28T09:30:50.676Z,65.94
2023-01-28T09:33:20.532Z,65.99
2023-01-28T09:35:51.974Z,66.56
2023-01-28T09:38:23.222Z,65.43
2023-01-28T09:40:55.674Z,65.27
2023-01-28T09:43:47.151Z,65.23
2023-01-28T09:46:18.160Z,65.61
2023-01-28T09:48:49.094Z,66.08
2023-01-28T09:51:31.109Z,66.28
2023-01-28T09:54:04.600Z,65.33
2023-01-28T09:56:41.275Z,65.80
2023-01-28T09:59:18.782Z,65.77
2023-01-28T10:01:56.710Z,65.59
2023-01-28T10:04:46.797Z,65.23
2023-01-28T10:07:35.465Z,64.34
2023-01-28T10:10:10.540Z,63.46
2023-01-28T10:12:54.564Z,63.94
2023-01-28T10:15:50.206Z,63.52
2023-01-28T10:18:26.874Z,63.02
2023-01-28T10:21:02.312Z,62.86
2023-01-28T10:23:43.898Z,63.33
2023-01-28T10:26:21.408Z,63.50
2023-01-28T10:28:55.986Z,64.15
2023-01-28T10:31:31.827Z,63.92
2023-01-28T10:34:02.097Z,64.18
2023-01-28T10:36:30.797Z,64.09
2023-01-28T10:38:59.675Z,64.35
2023-01-28T10:41:28.523Z,64.13
2023-01-28T10:43:58.046Z,64.43
2023-01-28T10:46:32.861Z,65.75
2023-01-28T10:49:09.800Z,65.17
2023-01-28T10:51:41.607Z,65.91
2023-01-28T10:54:20.876Z,65.60
2023-01-28T10:56:54.376Z,65.53
2023-01-28T10:59:27.564Z,65.79
2023-01-28T11:01:59.431Z,66.41
2023-01-28T11:04:31.373Z,66.00
2023-01-28T11:07:02.963Z,65.13
2023-01-28T11:09:37.204Z,65.93
2023-01-28T11:12:22.729Z,66.43
2023-01-28T11:14:53.108Z,67.33
2023-01-28T11:17:24.906Z,67.66
2023-01-28T11:19:55.994Z,68.11
2023-01-28T11:22:32.251Z,68.09
2023-01-28T11:25:02.636Z,68.13
2023-01-28T11:27:32.766Z,68.35
2023-01-28T11:30:03.955Z,68.83
2023-01-28T11:32:33.327Z,68.15
2023-01-28T11:35:01.814Z,68.33
2023-01-28T11:37:30.906Z,67.20
2023-01-28T11:40:19.013Z,67.03
2023-01-28T11:42:51.225Z,67.46
2023-01-28T11:45:25.871Z,67.10
2023-01-28T11:48:07.785Z,66.50
2023-01-28T11:50:44.161Z,67.00
2023-01-28T11:53:32.069Z,67.23
2023-01-28T11:56:16.200Z,67.06
2023-01-28T11:58:56.403Z,66.68
2023-01-28T12:01:37.593Z,68.08
2023-01-28T12:04:40.516Z,67.61
2023-01-28T12:07:19.072Z,68.13
2023-01-28T12:09:55.751Z,68.07
2023-01-28T12:12:43.115Z,67.45
2023-01-28T12:15:37.802Z,65.66
2023-01-28T12:18:21.146Z,65.92
2023-01-28T12:20:58.905Z,65.79
2023-01-28T12:23:38.560Z,65.60
2023-01-28T12:26:13.177Z,66.15
2023-01-28T12:28:58.050Z,65.43
2023-01-28T12:31:46.933Z,66.15
2023-01-28T12:34:32.746Z,66.26
2023-01-28T12:37:06.652Z,66.60
2023-01-28T12:39:49.344Z,66.35
2023-01-28T12:42:24.319Z,65.94
2023-01-28T12:45:00.329Z,65.56
2023-01-28T12:47:34.937Z,66.23
2023-01-28T12:50:13.633Z,65.78
2023-01-28T12:52:47.082Z,65.74
2023-01-28T12:55:20.840Z,65.99
2023-01-28T12:57:52.167Z,65.10
2023-01-28T13:00:27.863Z,64.64
2023-01-28T13:03:09.648Z,64.02
2023-01-28T13:05:43.595Z,63.39
2023-01-28T13:08:17.561Z,63.59
2023-01-28T13:10:47.036Z,63.64
2023-01-28T13:13:22.259Z,63.84
2023-01-28T13:15:51.079Z,63.25
2023-01-28T13:18:43.620Z,62.77
2023-01-28T13:21:17.639Z,62.88
2023-01-28T13:23:50.186Z,63.19
2023-01-28T13:26:28.573Z,63.54
2023-01-28T13:29:17.777Z,62.93
2023-01-28T13:31:50.527Z,62.37
2023-01-28T13:34:35.879Z,61.47
2023-01-28T13:37:17.696Z,61.52
2023-01-28T13:39:50.018Z,62.11
2023-01-28T13:42:25.994Z,62.68
2023-01-28T13:44:56.534Z,61.64
2023-01-28T13:47:33.200Z,61.82
2023-01-28T13:50:06.564Z,62.89
2023-01-28T13:52:44.156Z,62.56
2023-01-28T13:55:33.755Z,63.34
2023-01-28T13:58:45.452Z,64.01
2023-01-28T14:01:47.748Z,63.62
2023-01-28T14:04:41.780Z,63.03
2023-01-28T14:07:37.770Z,62.39
2023-01-28T14:10:21.360Z,62.16
2023-01-28T14:13:35.817Z,63.82
2023-01-28T14:16:30.692Z,63.95
2023-01-28T14:19:03.524Z,64.42
2023-01-28T14:21:35.464Z,63.53
2023-01-28T14:24:06.067Z,63.52
2023-01-28T14:26:49.827Z,62.84
2023-01-28T14:29:37.482Z,62.50
2023-01-28T14:32:11.847Z,62.63
2023-01-28T14:34:42.958Z,62.54
2023-01-28T14:37:16.850Z,62.81
2023-01-28T14:39:49.668Z,63.21
2023-01-28T14:42:22.750Z,62.51
2023-01-28T14:45:05.095Z,62.40
2023-01-28T14:47:47.214Z,62.01
2023-01-28T14:50:31.229Z,62.10
2023-01-28T14:53:37.125Z,61.85
2023-01-28T14:56:16.921Z,61.52
2023-01-28T14:58:49.464Z,61.39
2023-01-28T15:01:22.892Z,61.73
2023-01-28T15:03:51.905Z,61.62
2023-01-28T15:06:24.051Z,61.66
2023-01-28T15:08:53.025Z,61.77
2023-01-28T15:11:25.506Z,62.45
2023-01-28T15:13:57.709Z,62.29
2023-01-28T15:16:29.673Z,61.69
2023-01-28T15:19:01.175Z,62.05
2023-01-28T15:21:30.905Z,62.26
2023-01-28T15:24:02.356Z,62.16
2023-01-28T15:26:33.365Z,61.35
2023-01-28T15:29:01.716Z,60.83
2023-01-28T15:31:31.989Z,60.96
2023-01-28T15:34:02.930Z,60.78
2023-01-28T15:36:32.453Z,61.59
2023-01-28T15:39:01.020Z,61.50
2023-01-28T15:41:33.620Z,61.39
2023-01-28T15:44:03.702Z,61.45
2023-01-28T15:46:33.159Z,61.01
2023-01-28T15:49:03.380Z,61.05
2023-01-28T15:51:33.644Z,60.86
2023-01-28T15:54:06.560Z,61.82
2023-01-28T15:56:35.802Z,61.26
2023-01-28T15:59:20.109Z,61.34
2023-01-28T16:01:48.604Z,61.53
2023-01-28T16:04:25.353Z,61.76
2023-01-28T16:06:55.872Z,62.69
2023-01-28T16:09:27.786Z,63.07
2023-01-28T16:12:03.145Z,62.99
2023-01-28T16:14:40.066Z,62.19
2023-01-28T16:17:09.682Z,61.69
2023-01-28T16:19:40.709Z,61.57
2023-01-28T16:22:20.421Z,61.70
2023-01-28T16:24:53.509Z,62.28
2023-01-28T16:27:24.128Z,62.66
2023-01-28T16:29:52.985Z,63.20
2023-01-28T16:32:31.071Z,63.44
2023-01-28T16:34:59.565Z,63.81
2023-01-28T16:37:28.306Z,64.12
2023-01-28T16:39:58.159Z,64.28
2023-01-28T16:42:28.905Z,64.28
2023-01-28T16:44:57.306Z,64.31
2023-01-28T16:47:26.048Z,64.62
2023-01-28T16:49:54.702Z,63.97
2023-01-28T16:52:23.310Z,64.11
2023-01-28T16:54:51.554Z,63.82
2023-01-28T16:57:22.018Z,63.97
2023-01-28T16:59:51.046Z,64.15
2023-01-28T17:02:19.710Z,64.43
2023-01-28T17:04:49.348Z,64.46
2023-01-28T17:07:17.706Z,64.73
2023-01-28T17:09:46.117Z,65.07
2023-01-28T17:12:14.647Z,65.02
2023-01-28T17:14:43.115Z,65.45
2023-01-28T17:17:11.606Z,65.58
2023-01-28T17:19:40.311Z,66.03
2023-01-28T17:22:09.181Z,65.96
2023-01-28T17:24:38.056Z,66.36
2023-01-28T17:27:06.753Z,66.21
2023-01-28T17:29:35.976Z,66.09
2023-01-28T17:32:04.701Z,65.90
2023-01-28T17:34:33.222Z,66.12
2023-01-28T17:37:01.738Z,66.23
2023-01-28T17:39:30.321Z,66.50
2023-01-28T17:41:58.878Z,66.48
2023-01-28T17:44:27.299Z,66.81
2023-01-28T17:46:55.689Z,66.86
2023-01-28T17:49:24.469Z,66.49
2023-01-28T17:51:52.972Z,65.99
2023-01-28T17:54:23.108Z,65.87
2023-01-28T17:56:51.655Z,65.83
2023-01-28T17:59:20.812Z,65.77
2023-01-28T18:01:50.068Z,65.56
2023-01-28T18:04:18.539Z,66.00
2023-01-28T18:06:48.581Z,66.22
2023-01-28T18:09:19.451Z,66.38
2023-01-28T18:11:47.949Z,66.38
2023-01-28T18:14:16.712Z,66.25
2023-01-28T18:16:45.443Z,66.08
2023-01-28T18:19:13.885Z,66.22
2023-01-28T18:21:52.555Z,66.63
2023-01-28T18:24:23.089Z,66.55
2023-01-28T18:26:54.633Z,66.32
2023-01-28T18:29:23.404Z,66.62
2023-01-28T18:31:53.586Z,66.39
2023-01-28T18:34:23.600Z,66.38
2023-01-28T18:36:52.950Z,66.41
2023-01-28T18:39:22.021Z,66.43
2023-01-28T18:41:53.440Z,66.48
2023-01-28T18:44:23.489Z,66.54
2023-01-28T18:46:52.282Z,66.70
2023-01-28T18:49:20.720Z,67.17
2023-01-28T18:51:50.106Z,67.01
2023-01-28T18:54:19.685Z,67.74
2023-01-28T18:56:49.196Z,67.58
2023-01-28T18:59:18.465Z,67.94
2023-01-28T19:01:47.112Z,68.12
2023-01-28T19:04:15.845Z,68.65
2023-01-28T19:06:44.818Z,69.22
2023-01-28T19:09:15.348Z,68.64
2023-01-28T19:11:44.063Z,68.53
2023-01-28T19:14:14.213Z,68.84
2023-01-28T19:16:43.850Z,68.76
2023-01-28T19:19:12.927Z,69.18
2023-01-28T19:21:41.540Z,68.91
2023-01-28T19:24:13.437Z,69.09
2023-01-28T19:26:43.948Z,69.04
2023-01-28T19:29:16.444Z,69.34
2023-01-28T19:31:47.770Z,69.03
2023-01-28T19:34:16.292Z,69.05
2023-01-28T19:36:44.987Z,68.92
2023-01-28T19:39:14.094Z,68.94
2023-01-28T19:41:43.913Z,69.04
2023-01-28T19:44:12.656Z,69.27
2023-01-28T19:46:41.484Z,69.32
2023-01-28T19:49:11.951Z,69.46
2023-01-28T19:51:40.434Z,69.51
2023-01-28T19:54:09.208Z,69.77
2023-01-28T19:56:37.902Z,69.80
2023-01-28T19:59:06.583Z,69.96
2023-01-28T20:01:35.865Z,70.79
2023-01-28T20:04:04.946Z,70.82
2023-01-28T20:06:35.419Z,70.69
2023-01-28T20:09:08.774Z,70.64
2023-01-28T20:11:37.226Z,71.19
2023-01-28T20:14:05.657Z,71.31
2023-01-28T20:16:35.347Z,71.15
2023-01-28T20:19:05.511Z,71.44
2023-01-28T20:21:35.162Z,71.72
2023-01-28T20:24:04.228Z,72.18
2023-01-28T20:26:37.001Z,71.92
2023-01-28T20:29:07.274Z,71.99
2023-01-28T20:31:36.545Z,72.12
2023-01-28T20:34:05.569Z,72.23
2023-01-28T20:36:34.332Z,72.54
2023-01-28T20:39:02.809Z,72.37
2023-01-28T20:41:31.213Z,72.51
2023-01-28T20:43:59.839Z,72.79
2023-01-28T20:46:29.792Z,72.99
2023-01-28T20:49:02.204Z,73.07
2023-01-28T20:51:35.601Z,72.90
2023-01-28T20:54:05.239Z,72.83
2023-01-28T20:56:34.127Z,72.86
2023-01-28T20:59:05.422Z,72.65
2023-01-28T21:01:36.488Z,72.74
2023-01-28T21:04:06.033Z,73.37
2023-01-28T21:06:35.907Z,73.42
2023-01-28T21:09:05.192Z,73.63
2023-01-28T21:11:33.936Z,73.90
2023-01-28T21:14:02.415Z,74.46
2023-01-28T21:16:31.133Z,74.94
2023-01-28T21:18:59.660Z,75.33
2023-01-28T21:21:29.103Z,75.39
2023-01-28T21:24:00.317Z,75.33
2023-01-28T21:26:29.537Z,75.52
2023-01-28T21:28:57.897Z,75.88
2023-01-28T21:31:27.049Z,76.30
2023-01-28T21:33:57.043Z,76.29
2023-01-28T21:36:27.013Z,76.88
2023-01-28T21:38:57.427Z,76.57
2023-01-28T21:41:26.501Z,76.77
2023-01-28T21:43:56.725Z,76.82
2023-01-28T21:46:26.999Z,77.10
2023-01-28T21:48:57.229Z,77.14
2023-01-28T21:51:37.157Z,77.20
2023-01-28T21:54:08.209Z,77.43
2023-01-28T21:56:36.893Z,77.71
2023-01-28T21:59:23.880Z,77.72
2023-01-28T22:01:52.807Z,77.67
2023-01-28T22:04:21.937Z,77.58
2023-01-28T22:06:51.907Z,77.77
2023-01-28T22:09:20.310Z,77.25
2023-01-28T22:11:48.765Z,77.00
2023-01-28T22:14:17.702Z,76.62
2023-01-28T22:16:46.460Z,76.30
2023-01-28T22:19:15.094Z,76.02
2023-01-28T22:21:45.223Z,75.68
2023-01-28T22:24:16.136Z,75.55
2023-01-28T22:26:46.439Z,75.94
2023-01-28T22:29:17.554Z,76.05
2023-01-28T22:31:46.531Z,76.05
2023-01-28T22:34:16.006Z,76.14
2023-01-28T22:36:45.374Z,76.16
2023-01-28T22:39:16.205Z,76.05
2023-01-28T22:41:45.202Z,76.12
2023-01-28T22:44:13.926Z,76.21
2023-01-28T22:46:42.337Z,76.47
2023-01-28T22:49:11.453Z,76.65
2023-01-28T22:51:39.848Z,76.79
2023-01-28T22:54:10.228Z,77.16
2023-01-28T22:56:39.967Z,77.09
2023-01-28T22:59:09.609Z,77.21
2023-01-28T23:01:39.413Z,77.57
2023-01-28T23:04:08.140Z,77.83
2023-01-28T23:06:36.802Z,77.81
2023-01-28T23:09:06.006Z,77.78
2023-01-28T23:11:34.979Z,77.69
2023-01-28T23:14:22.768Z,77.62
2023-01-28T23:17:10.005Z,77.57
2023-01-28T23:19:56.840Z,77.66
2023-01-28T23:22:48.727Z,77.70
2023-01-28T23:25:18.157Z,77.52
2023-01-28T23:27:46.524Z,77.69
2023-01-28T23:30:15.663Z,77.73
2023-01-28T23:32:48.114Z,77.42
2023-01-28T23:35:18.265Z,77.08
2023-01-28T23:37:47.296Z,76.60
2023-01-28T23:40:16.725Z,76.82
2023-01-28T23:42:49.619Z,76.82
2023-01-28T23:45:17.325Z,76.97
2023-01-28T23:47:45.823Z,76.90
2023-01-28T23:50:15.876Z,77.10
2023-01-28T23:52:44.507Z,77.31
2023-01-28T23:55:13.378Z,77.39
2023-01-28T23:57:42.032Z,77.39
